createdAt,value
2023-05-20T00:03:14.057Z,1.80
2023-05-20T00:08:16.957Z,2.00
2023-05-20T00:13:19.867Z,1.40
2023-05-20T00:18:24.109Z,2.28
2023-05-20T00:23:26.942Z,1.60
2023-05-20T00:28:30.705Z,2.00
2023-05-20T00:33:36.291Z,1.75
2023-05-20T00:38:39.460Z,2.00
2023-05-20T00:43:42.572Z,1.90
2023-05-20T00:48:46.842Z,2.00
2023-05-20T00:53:50.366Z,1.65
2023-05-20T00:58:53.502Z,1.52
2023-05-20T01:03:57.854Z,2.13
2023-05-20T01:09:01.090Z,1.60
2023-05-20T01:14:09.434Z,1.77
2023-05-20T01:19:28.246Z,1.60
2023-05-20T01:24:33.726Z,1.95
2023-05-20T01:29:36.746Z,2.00
2023-05-20T01:34:41.774Z,1.90
2023-05-20T01:39:47.691Z,2.10
2023-05-20T01:44:50.657Z,2.10
2023-05-20T01:49:54.234Z,2.00
2023-05-20T01:54:58.589Z,1.83
2023-05-20T02:00:01.504Z,2.25
2023-05-20T02:05:04.606Z,1.90
2023-05-20T02:10:09.986Z,2.13
2023-05-20T02:15:13.005Z,2.35
2023-05-20T02:20:17.696Z,2.30
2023-05-20T02:25:21.942Z,2.22
2023-05-20T02:30:24.780Z,2.22
2023-05-20T02:35:27.715Z,2.60
2023-05-20T02:40:32.255Z,2.10
2023-05-20T02:45:36.465Z,2.30
2023-05-20T02:50:40.384Z,2.10
2023-05-20T02:55:47.347Z,2.33
2023-05-20T03:00:50.587Z,2.40
2023-05-20T03:05:53.465Z,2.63
2023-05-20T03:10:57.680Z,2.67
2023-05-20T03:16:01.590Z,2.80
2023-05-20T03:21:04.532Z,2.60
2023-05-20T03:26:08.850Z,2.28
2023-05-20T03:31:12.081Z,1.98
2023-05-20T03:36:15.014Z,2.30
2023-05-20T03:41:19.531Z,2.78
2023-05-20T03:46:22.588Z,2.90
2023-05-20T03:51:25.890Z,2.88
2023-05-20T03:56:33.127Z,2.67
2023-05-20T04:01:37.347Z,2.63
2023-05-20T04:06:40.442Z,3.00
2023-05-20T04:11:44.761Z,3.67
2023-05-20T04:16:48.276Z,2.63
2023-05-20T04:21:51.121Z,2.83
2023-05-20T04:26:55.483Z,3.20
2023-05-20T04:31:59.313Z,3.00
2023-05-20T04:37:02.353Z,2.60
2023-05-20T04:42:07.105Z,2.72
2023-05-20T04:47:09.994Z,3.25
2023-05-20T04:52:14.469Z,3.78
2023-05-20T04:57:21.051Z,3.50
2023-05-20T05:02:24.411Z,3.08
2023-05-20T05:07:27.295Z,3.50
2023-05-20T05:12:31.630Z,3.10
2023-05-20T05:17:35.285Z,3.00
2023-05-20T05:22:39.737Z,2.97
2023-05-20T05:27:45.260Z,3.03
2023-05-20T05:32:48.436Z,3.13
2023-05-20T05:37:51.823Z,3.35
2023-05-20T05:42:56.054Z,3.22
2023-05-20T05:47:59.026Z,3.72
2023-05-20T05:53:02.305Z,2.78
2023-05-20T05:58:08.203Z,2.78
2023-05-20T06:03:11.418Z,3.10
2023-05-20T06:08:14.506Z,3.47
2023-05-20T06:13:19.438Z,3.00
2023-05-20T06:18:22.821Z,3.05
2023-05-20T06:23:30.955Z,3.00
2023-05-20T06:28:38.279Z,3.00
2023-05-20T06:33:41.491Z,3.35
2023-05-20T06:38:47.897Z,3.40
2023-05-20T06:43:54.246Z,3.03
2023-05-20T06:49:26.333Z,3.08
2023-05-20T06:54:30.392Z,2.90
2023-05-20T06:59:35.904Z,2.90
2023-05-20T07:04:40.349Z,3.08
2023-05-20T07:09:44.348Z,3.33
2023-05-20T07:14:48.741Z,3.80
2023-05-20T07:19:51.767Z,3.28
2023-05-20T07:24:55.277Z,3.80
2023-05-20T07:29:59.698Z,4.13
2023-05-20T07:35:02.758Z,4.20
2023-05-20T07:40:07.798Z,3.88
2023-05-20T07:45:12.654Z,3.58
2023-05-20T07:50:15.553Z,3.42
2023-05-20T07:55:19.371Z,3.03
2023-05-20T08:00:24.525Z,2.65
2023-05-20T08:05:27.610Z,2.30
2023-05-20T08:10:30.782Z,2.60
2023-05-20T08:15:36.929Z,1.90
2023-05-20T08:20:39.772Z,2.53
2023-05-20T08:25:42.650Z,2.17
2023-05-20T08:30:48.837Z,1.98
2023-05-20T08:35:51.797Z,2.00
2023-05-20T08:40:56.431Z,2.22
2023-05-20T08:46:03.064Z,2.53
2023-05-20T08:51:10.516Z,2.20
2023-05-20T08:56:14.922Z,2.10
2023-05-20T09:01:19.147Z,2.33
2023-05-20T09:06:21.984Z,1.85
2023-05-20T09:11:24.850Z,2.00
2023-05-20T09:16:29.337Z,2.22
2023-05-20T09:21:32.242Z,2.30
2023-05-20T09:26:35.114Z,2.00
2023-05-20T09:31:39.683Z,2.15
2023-05-20T09:36:44.604Z,2.63
2023-05-20T09:41:56.619Z,2.67
2023-05-20T09:47:02.380Z,2.30
2023-05-20T09:52:06.412Z,2.25
2023-05-20T09:57:10.324Z,2.97
2023-05-20T10:02:14.844Z,2.47
2023-05-20T10:07:42.330Z,2.67
2023-05-20T10:12:56.892Z,3.30
2023-05-20T10:18:12.337Z,2.53
2023-05-20T10:23:23.098Z,3.00
2023-05-20T10:28:36.178Z,3.00
2023-05-20T10:33:44.775Z,2.58
2023-05-20T10:38:53.744Z,3.30
2023-05-20T10:44:04.144Z,3.55
2023-05-20T10:49:19.092Z,3.53
2023-05-20T10:54:23.542Z,3.38
2023-05-20T10:59:27.429Z,3.88
2023-05-20T11:04:33.065Z,3.80
2023-05-20T11:09:36.006Z,3.70
2023-05-20T11:14:38.944Z,3.97
2023-05-20T11:19:43.140Z,3.28
2023-05-20T11:24:46.138Z,3.53
2023-05-20T11:29:51.175Z,4.53
2023-05-20T11:34:55.350Z,3.38
2023-05-20T11:40:07.958Z,3.03
2023-05-20T11:50:19.944Z,2.80
2023-05-20T11:55:22.814Z,3.10
2023-05-20T12:00:27.581Z,3.00
2023-05-20T12:05:33.553Z,3.08
2023-05-20T12:10:37.630Z,3.10
2023-05-20T12:15:40.867Z,2.33
2023-05-20T12:20:45.050Z,2.88
2023-05-20T12:25:49.876Z,2.50
2023-05-20T12:30:52.968Z,2.63
2023-05-20T12:35:57.245Z,2.92
2023-05-20T12:41:00.138Z,2.75
2023-05-20T12:46:03.648Z,2.70
2023-05-20T12:51:07.997Z,2.53
2023-05-20T12:56:10.900Z,2.92
2023-05-20T13:01:13.757Z,2.00
2023-05-20T13:06:17.951Z,2.83
2023-05-20T13:11:21.705Z,2.58
2023-05-20T13:16:24.694Z,2.42
2023-05-20T13:21:29.090Z,2.90
2023-05-20T13:26:32.012Z,2.83
2023-05-20T13:31:35.060Z,3.25
2023-05-20T13:36:39.311Z,2.70
2023-05-20T13:41:42.204Z,2.95
2023-05-20T13:46:45.072Z,2.75
2023-05-20T13:51:49.283Z,2.67
2023-05-20T13:56:52.252Z,2.80
2023-05-20T14:01:55.237Z,2.88
2023-05-20T14:07:00.359Z,2.83
2023-05-20T14:12:03.551Z,3.25
2023-05-20T14:17:06.369Z,3.40
2023-05-20T14:22:10.554Z,3.08
2023-05-20T14:27:14.190Z,3.38
2023-05-20T14:32:17.065Z,3.63
2023-05-20T14:37:22.780Z,3.85
2023-05-20T14:42:25.699Z,3.95
2023-05-20T14:47:28.553Z,4.13
2023-05-20T14:52:32.765Z,4.20
2023-05-20T14:57:35.702Z,4.50
2023-05-20T15:02:38.791Z,4.70
2023-05-20T15:07:44.169Z,4.10
2023-05-20T15:12:47.654Z,4.20
2023-05-20T15:17:50.578Z,4.45
2023-05-20T15:22:55.001Z,4.72
2023-05-20T15:27:57.808Z,5.03
2023-05-20T15:33:01.252Z,8.75
2023-05-20T15:38:05.574Z,4.78
2023-05-20T15:43:09.008Z,5.45
2023-05-20T15:48:12.237Z,4.97
2023-05-20T15:53:16.852Z,4.47
2023-05-20T15:58:19.835Z,6.80
2023-05-20T16:03:22.740Z,6.47
2023-05-20T16:08:29.387Z,7.68
2023-05-20T16:13:32.384Z,6.63
2023-05-20T16:18:35.205Z,7.10
2023-05-20T16:23:39.582Z,15.38
2023-05-20T16:28:42.417Z,6.28
2023-05-20T16:33:45.666Z,6.55
2023-05-20T16:38:49.872Z,5.88
2023-05-20T16:43:52.851Z,6.00
2023-05-20T16:48:56.134Z,6.47
2023-05-20T16:54:00.363Z,6.93
2023-05-20T16:59:04.422Z,6.50
2023-05-20T17:04:07.309Z,6.60
2023-05-20T17:09:11.727Z,6.72
2023-05-20T17:14:14.637Z,6.80
2023-05-20T17:19:17.760Z,7.57
2023-05-20T17:24:21.963Z,6.35
2023-05-20T17:29:24.837Z,6.43
2023-05-20T17:34:27.677Z,6.18
2023-05-20T17:39:31.863Z,6.85
2023-05-20T17:44:34.766Z,5.95
2023-05-20T17:49:37.650Z,6.38
2023-05-20T17:54:41.926Z,7.07
2023-05-20T17:59:45.519Z,6.93
2023-05-20T18:04:48.415Z,7.13
2023-05-20T18:09:52.788Z,7.55
2023-05-20T18:14:55.776Z,8.35
2023-05-20T18:19:58.734Z,6.68
2023-05-20T18:25:03.025Z,6.60
2023-05-20T18:30:07.253Z,7.15
2023-05-20T18:35:11.268Z,7.10
2023-05-20T18:40:15.833Z,6.70
2023-05-20T18:45:18.724Z,6.47
2023-05-20T18:50:21.631Z,6.13
2023-05-20T18:55:26.336Z,6.35
2023-05-20T19:00:29.175Z,6.30
2023-05-20T19:05:32.222Z,6.80
2023-05-20T19:10:36.493Z,5.70
2023-05-20T19:15:39.323Z,5.90
2023-05-20T19:20:42.206Z,5.75
2023-05-20T19:25:46.777Z,5.43
2023-05-20T19:30:50.001Z,5.93
2023-05-20T19:35:52.946Z,5.75
2023-05-20T19:40:57.203Z,5.75
2023-05-20T19:46:00.572Z,5.68
2023-05-20T19:51:03.532Z,5.15
2023-05-20T19:56:08.899Z,5.63
2023-05-20T20:01:12.996Z,5.43
2023-05-20T20:06:15.890Z,5.57
2023-05-20T20:11:20.071Z,5.07
2023-05-20T20:16:22.929Z,5.45
2023-05-20T20:21:26.850Z,5.65
2023-05-20T20:26:31.030Z,5.18
2023-05-20T20:31:33.954Z,5.40
2023-05-20T20:36:37.146Z,4.82
2023-05-20T20:41:45.112Z,5.72
2023-05-20T20:46:51.197Z,5.10
2023-05-20T20:51:54.148Z,4.68
2023-05-20T20:57:00.009Z,4.78
2023-05-20T21:02:03.202Z,5.53
2023-05-20T21:07:06.124Z,5.63
2023-05-20T21:12:10.919Z,5.55
2023-05-20T21:17:14.053Z,5.22
2023-05-20T21:22:17.109Z,5.30
2023-05-20T21:27:21.326Z,5.03
2023-05-20T21:32:24.275Z,5.68
2023-05-20T21:37:27.167Z,5.80
2023-05-20T21:42:31.381Z,5.70
2023-05-20T21:47:34.316Z,5.57
2023-05-20T21:52:37.174Z,5.13
2023-05-20T21:57:41.682Z,5.47
2023-05-20T22:02:44.599Z,5.32
2023-05-20T22:07:47.798Z,5.18
2023-05-20T22:12:52.014Z,5.75
2023-05-20T22:17:55.359Z,5.80
2023-05-20T22:22:58.216Z,5.55
2023-05-20T22:28:04.522Z,5.30
2023-05-20T22:33:07.386Z,5.03
2023-05-20T22:38:10.324Z,5.32
2023-05-20T22:43:14.499Z,5.75
2023-05-20T22:48:17.400Z,5.53
2023-05-20T22:53:20.316Z,5.50
2023-05-20T22:58:24.464Z,5.88
2023-05-20T23:03:27.323Z,6.15
2023-05-20T23:08:30.243Z,5.90
2023-05-20T23:13:34.781Z,6.30
2023-05-20T23:18:37.668Z,6.20
2023-05-20T23:23:40.587Z,6.50
2023-05-20T23:28:44.856Z,7.22
2023-05-20T23:33:47.692Z,5.70
2023-05-20T23:38:51.559Z,6.47
2023-05-20T23:43:55.746Z,6.18
2023-05-20T23:49:00.314Z,5.90
2023-05-20T23:54:03.128Z,6.00
2023-05-20T23:59:07.299Z,5.45
